sensor_id;sensor_type;location;lat;lon;timestamp;pressure;altitude;pressure_sealevel;temperature;humidity
21109;BME280;10712;52.944;9.098;2023-01-15T00:01:52;99443.94;;;15.75;55.15
21109;BME280;10712;52.944;9.098;2023-01-15T00:04:18;99441.78;;;15.79;54.68
21109;BME280;10712;52.944;9.098;2023-01-15T00:06:43;99435.34;;;15.72;54.91
21109;BME280;10712;52.944;9.098;2023-01-15T00:09:14;99428.69;;;15.58;54.90
21109;BME280;10712;52.944;9.098;2023-01-15T00:11:40;99445.84;;;15.65;54.63
21109;BME280;10712;52.944;9.098;2023-01-15T00:14:06;99437.88;;;15.73;54.72
21109;BME280;10712;52.944;9.098;2023-01-15T00:16:32;99447.25;;;15.69;54.56
21109;BME280;10712;52.944;9.098;2023-01-15T00:19:00;99438.13;;;15.62;54.78
21109;BME280;10712;52.944;9.098;2023-01-15T00:21:27;99440.81;;;15.62;54.91
21109;BME280;10712;52.944;9.098;2023-01-15T00:23:54;99429.47;;;15.68;54.50
21109;BME280;10712;52.944;9.098;2023-01-15T00:26:39;99425.53;;;15.63;54.56
21109;BME280;10712;52.944;9.098;2023-01-15T00:29:24;99428.38;;;15.61;54.46
21109;BME280;10712;52.944;9.098;2023-01-15T00:31:55;99418.25;;;15.55;54.81
21109;BME280;10712;52.944;9.098;2023-01-15T00:34:22;99427.69;;;15.59;54.87
21109;BME280;10712;52.944;9.098;2023-01-15T00:36:48;99435.44;;;15.62;54.44
21109;BME280;10712;52.944;9.098;2023-01-15T00:39:14;99438.78;;;15.64;54.26
21109;BME280;10712;52.944;9.098;2023-01-15T00:41:39;99437.44;;;15.60;53.96
21109;BME280;10712;52.944;9.098;2023-01-15T00:44:05;99439.34;;;15.68;53.90
21109;BME280;10712;52.944;9.098;2023-01-15T00:46:31;99445.78;;;15.57;53.56
21109;BME280;10712;52.944;9.098;2023-01-15T00:48:57;99443.66;;;15.51;53.60
21109;BME280;10712;52.944;9.098;2023-01-15T00:51:23;99450.88;;;15.51;53.60
21109;BME280;10712;52.944;9.098;2023-01-15T00:53:49;99455.00;;;15.55;53.65
21109;BME280;10712;52.944;9.098;2023-01-15T00:56:14;99462.88;;;15.56;53.63
21109;BME280;10712;52.944;9.098;2023-01-15T00:58:40;99466.25;;;15.58;53.18
21109;BME280;10712;52.944;9.098;2023-01-15T01:01:07;99450.63;;;15.54;53.37
21109;BME280;10712;52.944;9.098;2023-01-15T01:03:33;99452.72;;;15.50;53.13
21109;BME280;10712;52.944;9.098;2023-01-15T01:06:02;99452.19;;;15.47;53.12
21109;BME280;10712;52.944;9.098;2023-01-15T01:08:28;99443.41;;;15.54;52.79
21109;BME280;10712;52.944;9.098;2023-01-15T01:11:06;99449.88;;;15.52;52.80
21109;BME280;10712;52.944;9.098;2023-01-15T01:13:34;99449.13;;;15.42;52.83
21109;BME280;10712;52.944;9.098;2023-01-15T01:16:00;99452.25;;;15.37;53.02
21109;BME280;10712;52.944;9.098;2023-01-15T01:18:26;99455.88;;;15.46;52.92
21109;BME280;10712;52.944;9.098;2023-01-15T01:20:52;99454.78;;;15.38;52.97
21109;BME280;10712;52.944;9.098;2023-01-15T01:23:18;99449.78;;;15.44;52.86
21109;BME280;10712;52.944;9.098;2023-01-15T01:25:45;99469.44;;;15.44;52.75
21109;BME280;10712;52.944;9.098;2023-01-15T01:28:10;99469.50;;;15.34;52.73
21109;BME280;10712;52.944;9.098;2023-01-15T01:30:37;99467.72;;;15.43;52.74
21109;BME280;10712;52.944;9.098;2023-01-15T01:33:04;99455.00;;;15.45;52.58
21109;BME280;10712;52.944;9.098;2023-01-15T01:35:33;99464.38;;;15.41;52.41
21109;BME280;10712;52.944;9.098;2023-01-15T01:37:59;99465.50;;;15.38;52.35
21109;BME280;10712;52.944;9.098;2023-01-15T01:40:25;99469.19;;;15.37;52.17
21109;BME280;10712;52.944;9.098;2023-01-15T01:42:51;99461.00;;;15.39;52.33
21109;BME280;10712;52.944;9.098;2023-01-15T01:45:24;99462.38;;;15.43;52.18
21109;BME280;10712;52.944;9.098;2023-01-15T01:47:56;99453.22;;;15.36;52.08
21109;BME280;10712;52.944;9.098;2023-01-15T01:50:27;99455.91;;;15.36;52.20
21109;BME280;10712;52.944;9.098;2023-01-15T01:53:07;99447.47;;;15.31;52.10
21109;BME280;10712;52.944;9.098;2023-01-15T01:55:37;99443.19;;;15.38;51.79
21109;BME280;10712;52.944;9.098;2023-01-15T01:58:05;99449.41;;;15.38;51.88
21109;BME280;10712;52.944;9.098;2023-01-15T02:00:35;99461.22;;;15.46;51.81
21109;BME280;10712;52.944;9.098;2023-01-15T02:03:06;99462.38;;;15.43;51.50
21109;BME280;10712;52.944;9.098;2023-01-15T02:05:43;99470.34;;;15.35;51.64
21109;BME280;10712;52.944;9.098;2023-01-15T02:08:10;99478.22;;;15.36;51.67
21109;BME280;10712;52.944;9.098;2023-01-15T02:10:36;99477.69;;;15.33;51.94
21109;BME280;10712;52.944;9.098;2023-01-15T02:13:20;99467.25;;;15.30;51.75
21109;BME280;10712;52.944;9.098;2023-01-15T02:16:07;99469.28;;;15.28;51.55
21109;BME280;10712;52.944;9.098;2023-01-15T02:18:49;99465.56;;;15.29;51.87
21109;BME280;10712;52.944;9.098;2023-01-15T02:21:39;99463.91;;;15.28;51.58
21109;BME280;10712;52.944;9.098;2023-01-15T02:24:22;99480.56;;;15.22;51.90
21109;BME280;10712;52.944;9.098;2023-01-15T02:27:16;99482.25;;;15.23;51.69
21109;BME280;10712;52.944;9.098;2023-01-15T02:32:52;99461.59;;;15.33;51.58
21109;BME280;10712;52.944;9.098;2023-01-15T02:38:00;99477.38;;;15.36;50.82
21109;BME280;10712;52.944;9.098;2023-01-15T02:40:28;99471.25;;;15.26;51.07
21109;BME280;10712;52.944;9.098;2023-01-15T02:42:58;99475.16;;;15.31;50.92
21109;BME280;10712;52.944;9.098;2023-01-15T02:45:29;99481.97;;;15.26;51.14
21109;BME280;10712;52.944;9.098;2023-01-15T02:48:08;99478.97;;;15.29;51.16
21109;BME280;10712;52.944;9.098;2023-01-15T02:50:41;99482.22;;;15.32;50.82
21109;BME280;10712;52.944;9.098;2023-01-15T02:53:16;99491.53;;;15.28;50.92
21109;BME280;10712;52.944;9.098;2023-01-15T02:55:48;99481.97;;;15.26;50.88
21109;BME280;10712;52.944;9.098;2023-01-15T02:58:24;99474.06;;;15.24;50.83
21109;BME280;10712;52.944;9.098;2023-01-15T03:00:55;99484.75;;;15.34;50.61
21109;BME280;10712;52.944;9.098;2023-01-15T03:03:51;99467.56;;;15.27;50.87
21109;BME280;10712;52.944;9.098;2023-01-15T03:06:54;99469.28;;;15.28;50.83
21109;BME280;10712;52.944;9.098;2023-01-15T03:09:23;99467.00;;;15.23;50.79
21109;BME280;10712;52.944;9.098;2023-01-15T03:15:06;99457.59;;;15.37;50.05
21109;BME280;10712;52.944;9.098;2023-01-15T03:17:54;99459.22;;;15.30;50.00
21109;BME280;10712;52.944;9.098;2023-01-15T03:20:26;99451.94;;;15.40;49.83
21109;BME280;10712;52.944;9.098;2023-01-15T03:22:58;99457.50;;;15.29;50.08
21109;BME280;10712;52.944;9.098;2023-01-15T03:25:36;99452.25;;;15.37;49.81
21109;BME280;10712;52.944;9.098;2023-01-15T03:28:04;99463.56;;;15.31;49.66
21109;BME280;10712;52.944;9.098;2023-01-15T03:30:33;99460.75;;;15.32;49.76
21109;BME280;10712;52.944;9.098;2023-01-15T03:32:59;99464.66;;;15.38;49.42
21109;BME280;10712;52.944;9.098;2023-01-15T03:35:51;99448.38;;;15.22;49.71
21109;BME280;10712;52.944;9.098;2023-01-15T03:38:36;99447.81;;;15.28;49.85
21109;BME280;10712;52.944;9.098;2023-01-15T03:41:38;99456.03;;;15.17;49.94
21109;BME280;10712;52.944;9.098;2023-01-15T03:47:23;99443.53;;;15.35;49.53
21109;BME280;10712;52.944;9.098;2023-01-15T03:50:05;99430.31;;;15.24;49.88
21109;BME280;10712;52.944;9.098;2023-01-15T03:58:42;99419.88;;;15.21;49.26
21109;BME280;10712;52.944;9.098;2023-01-15T04:01:19;99417.88;;;15.23;49.46
21109;BME280;10712;52.944;9.098;2023-01-15T04:03:50;99416.78;;;15.16;49.69
21109;BME280;10712;52.944;9.098;2023-01-15T04:06:19;99410.34;;;15.09;49.89
21109;BME280;10712;52.944;9.098;2023-01-15T04:08:47;99410.75;;;15.14;50.03
21109;BME280;10712;52.944;9.098;2023-01-15T04:11:22;99406.00;;;15.25;49.80
21109;BME280;10712;52.944;9.098;2023-01-15T04:13:51;99409.97;;;15.21;49.79
21109;BME280;10712;52.944;9.098;2023-01-15T04:16:40;99419.19;;;15.19;49.85
21109;BME280;10712;52.944;9.098;2023-01-15T04:19:06;99415.81;;;15.17;49.98
21109;BME280;10712;52.944;9.098;2023-01-15T04:21:35;99422.47;;;15.13;50.13
21109;BME280;10712;52.944;9.098;2023-01-15T04:24:01;99421.53;;;15.22;49.91
21109;BME280;10712;52.944;9.098;2023-01-15T04:26:27;99411.75;;;15.13;50.12
21109;BME280;10712;52.944;9.098;2023-01-15T04:28:54;99418.72;;;15.23;50.17
21109;BME280;10712;52.944;9.098;2023-01-15T04:31:19;99420.47;;;15.15;50.25
21109;BME280;10712;52.944;9.098;2023-01-15T04:33:45;99421.78;;;15.11;50.44
21109;BME280;10712;52.944;9.098;2023-01-15T04:36:11;99420.78;;;15.12;50.59
21109;BME280;10712;52.944;9.098;2023-01-15T04:38:39;99427.97;;;15.11;50.71
21109;BME280;10712;52.944;9.098;2023-01-15T04:41:05;99425.69;;;15.16;50.24
21109;BME280;10712;52.944;9.098;2023-01-15T04:43:50;99418.63;;;15.15;50.51
21109;BME280;10712;52.944;9.098;2023-01-15T04:46:46;99405.78;;;15.19;50.22
21109;BME280;10712;52.944;9.098;2023-01-15T04:49:16;99407.28;;;15.04;50.50
21109;BME280;10712;52.944;9.098;2023-01-15T04:51:43;99419.00;;;15.03;50.62
21109;BME280;10712;52.944;9.098;2023-01-15T04:54:11;99409.50;;;15.08;50.48
21109;BME280;10712;52.944;9.098;2023-01-15T04:56:44;99406.50;;;14.93;50.46
21109;BME280;10712;52.944;9.098;2023-01-15T04:59:14;99405.66;;;14.93;50.55
21109;BME280;10712;52.944;9.098;2023-01-15T05:01:40;99419.19;;;14.91;50.68
21109;BME280;10712;52.944;9.098;2023-01-15T05:04:06;99424.81;;;14.98;50.23
21109;BME280;10712;52.944;9.098;2023-01-15T05:06:33;99412.28;;;14.89;50.58
21109;BME280;10712;52.944;9.098;2023-01-15T05:09:00;99405.81;;;14.91;50.67
21109;BME280;10712;52.944;9.098;2023-01-15T05:11:27;99407.06;;;14.87;50.65
21109;BME280;10712;52.944;9.098;2023-01-15T05:13:54;99409.19;;;14.93;50.69
21109;BME280;10712;52.944;9.098;2023-01-15T05:16:26;99401.56;;;14.89;50.63
21109;BME280;10712;52.944;9.098;2023-01-15T05:18:54;99405.31;;;14.78;50.90
21109;BME280;10712;52.944;9.098;2023-01-15T05:21:28;99402.81;;;14.94;50.64
21109;BME280;10712;52.944;9.098;2023-01-15T05:23:57;99409.97;;;14.76;50.85
21109;BME280;10712;52.944;9.098;2023-01-15T05:26:27;99408.28;;;14.75;50.80
21109;BME280;10712;52.944;9.098;2023-01-15T05:28:55;99400.38;;;14.74;50.98
21109;BME280;10712;52.944;9.098;2023-01-15T05:31:22;99411.94;;;14.74;50.90
21109;BME280;10712;52.944;9.098;2023-01-15T05:33:50;99409.38;;;14.82;50.64
21109;BME280;10712;52.944;9.098;2023-01-15T05:36:20;99406.28;;;14.77;50.73
21109;BME280;10712;52.944;9.098;2023-01-15T05:38:46;99406.88;;;14.71;51.04
21109;BME280;10712;52.944;9.098;2023-01-15T05:41:17;99391.09;;;14.68;51.11
21109;BME280;10712;52.944;9.098;2023-01-15T05:44:08;99401.22;;;14.74;50.99
21109;BME280;10712;52.944;9.098;2023-01-15T05:46:37;99406.56;;;14.74;50.94
21109;BME280;10712;52.944;9.098;2023-01-15T05:49:07;99396.44;;;14.68;50.95
21109;BME280;10712;52.944;9.098;2023-01-15T05:51:35;99394.72;;;14.77;50.83
21109;BME280;10712;52.944;9.098;2023-01-15T05:54:02;99389.13;;;14.70;50.83
21109;BME280;10712;52.944;9.098;2023-01-15T05:56:28;99410.81;;;14.77;50.63
21109;BME280;10712;52.944;9.098;2023-01-15T05:58:54;99412.09;;;14.73;50.83
21109;BME280;10712;52.944;9.098;2023-01-15T06:01:20;99413.63;;;14.75;50.45
21109;BME280;10712;52.944;9.098;2023-01-15T06:03:46;99411.66;;;14.77;50.26
21109;BME280;10712;52.944;9.098;2023-01-15T06:06:16;99409.25;;;14.74;50.12
21109;BME280;10712;52.944;9.098;2023-01-15T06:08:43;99409.69;;;14.79;50.01
21109;BME280;10712;52.944;9.098;2023-01-15T06:11:10;99414.94;;;14.71;49.96
21109;BME280;10712;52.944;9.098;2023-01-15T06:13:38;99411.69;;;14.68;50.23
21109;BME280;10712;52.944;9.098;2023-01-15T06:16:06;99405.19;;;14.70;49.98
21109;BME280;10712;52.944;9.098;2023-01-15T06:18:32;99408.88;;;14.69;49.89
21109;BME280;10712;52.944;9.098;2023-01-15T06:21:08;99419.31;;;14.72;49.83
21109;BME280;10712;52.944;9.098;2023-01-15T06:23:35;99415.03;;;14.79;49.60
21109;BME280;10712;52.944;9.098;2023-01-15T06:26:06;99416.41;;;14.83;49.14
21109;BME280;10712;52.944;9.098;2023-01-15T06:28:32;99418.16;;;14.75;49.20
21109;BME280;10712;52.944;9.098;2023-01-15T06:30:59;99410.50;;;14.80;48.73
21109;BME280;10712;52.944;9.098;2023-01-15T06:33:25;99418.28;;;14.73;48.62
21109;BME280;10712;52.944;9.098;2023-01-15T06:35:52;99423.50;;;14.75;48.77
21109;BME280;10712;52.944;9.098;2023-01-15T06:38:17;99409.47;;;14.63;48.72
21109;BME280;10712;52.944;9.098;2023-01-15T06:40:43;99414.78;;;14.73;48.61
21109;BME280;10712;52.944;9.098;2023-01-15T06:43:10;99418.72;;;14.78;48.31
21109;BME280;10712;52.944;9.098;2023-01-15T06:45:55;99402.91;;;14.75;48.16
21109;BME280;10712;52.944;9.098;2023-01-15T06:48:50;99406.75;;;14.73;48.17
21109;BME280;10712;52.944;9.098;2023-01-15T06:51:16;99413.34;;;14.78;47.83
21109;BME280;10712;52.944;9.098;2023-01-15T06:53:45;99414.50;;;14.66;48.19
21109;BME280;10712;52.944;9.098;2023-01-15T06:56:13;99411.34;;;14.80;47.36
21109;BME280;10712;52.944;9.098;2023-01-15T06:58:42;99416.03;;;14.78;47.68
21109;BME280;10712;52.944;9.098;2023-01-15T07:01:11;99395.06;;;14.64;47.94
21109;BME280;10712;52.944;9.098;2023-01-15T07:03:37;99398.84;;;14.71;47.82
21109;BME280;10712;52.944;9.098;2023-01-15T07:06:12;99398.09;;;14.79;47.71
21109;BME280;10712;52.944;9.098;2023-01-15T07:08:39;99402.53;;;14.70;47.57
21109;BME280;10712;52.944;9.098;2023-01-15T07:11:07;99398.84;;;14.71;47.60
21109;BME280;10712;52.944;9.098;2023-01-15T07:13:35;99395.34;;;14.61;47.51
21109;BME280;10712;52.944;9.098;2023-01-15T07:16:03;99399.44;;;14.65;47.74
21109;BME280;10712;52.944;9.098;2023-01-15T07:18:31;99398.88;;;14.62;47.60
21109;BME280;10712;52.944;9.098;2023-01-15T07:20:58;99404.97;;;14.54;47.34
21109;BME280;10712;52.944;9.098;2023-01-15T07:23:25;99413.25;;;14.70;47.14
21109;BME280;10712;52.944;9.098;2023-01-15T07:25:52;99415.09;;;14.60;47.53
21109;BME280;10712;52.944;9.098;2023-01-15T07:28:20;99402.38;;;14.72;46.95
21109;BME280;10712;52.944;9.098;2023-01-15T07:30:46;99417.63;;;14.71;46.96
21109;BME280;10712;52.944;9.098;2023-01-15T07:33:12;99417.38;;;14.65;47.12
21109;BME280;10712;52.944;9.098;2023-01-15T07:35:38;99422.00;;;14.72;46.90
21109;BME280;10712;52.944;9.098;2023-01-15T07:38:04;99407.16;;;14.68;46.65
21109;BME280;10712;52.944;9.098;2023-01-15T07:40:30;99414.81;;;14.63;47.18
21109;BME280;10712;52.944;9.098;2023-01-15T07:42:55;99414.25;;;14.59;47.22
21109;BME280;10712;52.944;9.098;2023-01-15T07:45:41;99412.53;;;14.68;47.17
21109;BME280;10712;52.944;9.098;2023-01-15T07:48:26;99419.59;;;14.69;46.97
21109;BME280;10712;52.944;9.098;2023-01-15T07:51:10;99428.34;;;14.71;47.00
21109;BME280;10712;52.944;9.098;2023-01-15T07:53:36;99436.25;;;14.63;47.14
21109;BME280;10712;52.944;9.098;2023-01-15T07:56:02;99430.38;;;14.50;47.57
21109;BME280;10712;52.944;9.098;2023-01-15T07:58:28;99417.53;;;14.53;47.38
21109;BME280;10712;52.944;9.098;2023-01-15T08:00:54;99436.28;;;14.53;47.36
21109;BME280;10712;52.944;9.098;2023-01-15T08:03:20;99434.69;;;14.70;46.67
21109;BME280;10712;52.944;9.098;2023-01-15T08:05:45;99439.94;;;14.62;46.44
21109;BME280;10712;52.944;9.098;2023-01-15T08:08:18;99446.41;;;14.69;45.22
21109;BME280;10712;52.944;9.098;2023-01-15T08:10:44;99441.97;;;14.41;44.21
21109;BME280;10712;52.944;9.098;2023-01-15T08:13:29;99444.41;;;14.71;43.92
21109;BME280;10712;52.944;9.098;2023-01-15T08:16:13;99453.25;;;14.44;44.02
21109;BME280;10712;52.944;9.098;2023-01-15T08:18:40;99453.69;;;14.30;44.16
21109;BME280;10712;52.944;9.098;2023-01-15T08:21:06;99434.25;;;14.38;44.19
21109;BME280;10712;52.944;9.098;2023-01-15T08:23:37;99438.84;;;14.36;44.62
21109;BME280;10712;52.944;9.098;2023-01-15T08:26:03;99451.47;;;14.16;44.83
21109;BME280;10712;52.944;9.098;2023-01-15T08:28:30;99472.84;;;14.26;44.63
21109;BME280;10712;52.944;9.098;2023-01-15T08:30:56;99457.78;;;14.05;43.87
21109;BME280;10712;52.944;9.098;2023-01-15T08:33:22;99451.34;;;13.79;43.34
21109;BME280;10712;52.944;9.098;2023-01-15T08:35:47;99441.91;;;13.75;42.74
21109;BME280;10712;52.944;9.098;2023-01-15T08:38:13;99446.53;;;13.92;42.80
21109;BME280;10712;52.944;9.098;2023-01-15T08:40:39;99435.56;;;13.95;42.66
21109;BME280;10712;52.944;9.098;2023-01-15T08:43:24;99432.16;;;13.93;43.45
21109;BME280;10712;52.944;9.098;2023-01-15T08:45:50;99428.78;;;13.91;43.73
21109;BME280;10712;52.944;9.098;2023-01-15T08:48:17;99428.22;;;13.88;44.10
21109;BME280;10712;52.944;9.098;2023-01-15T08:50:43;99429.06;;;13.78;44.73
21109;BME280;10712;52.944;9.098;2023-01-15T08:53:08;99437.97;;;13.79;45.22
21109;BME280;10712;52.944;9.098;2023-01-15T08:55:36;99431.06;;;13.67;45.66
21109;BME280;10712;52.944;9.098;2023-01-15T08:58:02;99422.31;;;13.65;45.89
21109;BME280;10712;52.944;9.098;2023-01-15T09:00:27;99432.19;;;13.55;46.24
21109;BME280;10712;52.944;9.098;2023-01-15T09:02:53;99431.63;;;13.61;46.38
21109;BME280;10712;52.944;9.098;2023-01-15T09:05:19;99434.72;;;13.47;46.71
21109;BME280;10712;52.944;9.098;2023-01-15T09:07:45;99438.94;;;13.39;46.94
21109;BME280;10712;52.944;9.098;2023-01-15T09:10:10;99439.34;;;13.45;47.18
21109;BME280;10712;52.944;9.098;2023-01-15T09:12:36;99437.41;;;13.47;46.90
21109;BME280;10712;52.944;9.098;2023-01-15T09:15:02;99444.38;;;13.28;47.41
21109;BME280;10712;52.944;9.098;2023-01-15T09:17:29;99434.84;;;13.26;47.64
21109;BME280;10712;52.944;9.098;2023-01-15T09:19:55;99434.41;;;13.30;47.79
21109;BME280;10712;52.944;9.098;2023-01-15T09:22:21;99431.56;;;13.22;47.92
21109;BME280;10712;52.944;9.098;2023-01-15T09:24:47;99435.22;;;13.21;48.06
21109;BME280;10712;52.944;9.098;2023-01-15T09:27:13;99436.91;;;13.22;47.94
21109;BME280;10712;52.944;9.098;2023-01-15T09:29:39;99436.09;;;13.31;47.98
21109;BME280;10712;52.944;9.098;2023-01-15T09:32:04;99444.56;;;13.27;48.02
21109;BME280;10712;52.944;9.098;2023-01-15T09:34:32;99446.38;;;13.26;48.15
21109;BME280;10712;52.944;9.098;2023-01-15T09:36:58;99438.78;;;13.31;48.24
21109;BME280;10712;52.944;9.098;2023-01-15T09:39:24;99439.63;;;13.41;47.92
21109;BME280;10712;52.944;9.098;2023-01-15T09:45:30;99456.41;;;13.63;47.28
21109;BME280;10712;52.944;9.098;2023-01-15T09:51:43;99452.44;;;13.76;46.11
21109;BME280;10712;52.944;9.098;2023-01-15T09:57:19;99465.41;;;13.91;45.78
21109;BME280;10712;52.944;9.098;2023-01-15T09:59:49;99465.00;;;13.86;46.12
21109;BME280;10712;52.944;9.098;2023-01-15T10:09:21;99468.66;;;13.94;45.95
21109;BME280;10712;52.944;9.098;2023-01-15T10:11:58;99467.41;;;13.89;46.28
21109;BME280;10712;52.944;9.098;2023-01-15T10:14:59;99456.97;;;13.95;46.17
21109;BME280;10712;52.944;9.098;2023-01-15T10:17:37;99459.91;;;13.92;46.38
21109;BME280;10712;52.944;9.098;2023-01-15T10:20:28;99444.03;;;13.81;46.19
21109;BME280;10712;52.944;9.098;2023-01-15T10:26:35;99442.03;;;13.83;46.27
21109;BME280;10712;52.944;9.098;2023-01-15T10:29:23;99445.38;;;14.04;45.72
21109;BME280;10712;52.944;9.098;2023-01-15T10:37:50;99416.19;;;14.20;45.29
21109;BME280;10712;52.944;9.098;2023-01-15T10:45:50;99391.78;;;14.43;44.98
21109;BME280;10712;52.944;9.098;2023-01-15T10:48:29;99395.84;;;14.37;44.85
21109;BME280;10712;52.944;9.098;2023-01-15T10:51:03;99396.72;;;14.38;44.57
21109;BME280;10712;52.944;9.098;2023-01-15T10:53:44;99388.09;;;14.44;43.36
21109;BME280;10712;52.944;9.098;2023-01-15T10:56:25;99393.66;;;14.60;43.78
21109;BME280;10712;52.944;9.098;2023-01-15T10:59:03;99381.84;;;14.53;43.95
21109;BME280;10712;52.944;9.098;2023-01-15T11:01:34;99384.63;;;14.61;43.77
21109;BME280;10712;52.944;9.098;2023-01-15T11:04:00;99374.50;;;14.55;43.15
21109;BME280;10712;52.944;9.098;2023-01-15T11:06:30;99380.94;;;14.72;42.51
21109;BME280;10712;52.944;9.098;2023-01-15T11:08:57;99367.59;;;14.80;42.59
21109;BME280;10712;52.944;9.098;2023-01-15T11:11:47;99370.59;;;14.77;42.66
21109;BME280;10712;52.944;9.098;2023-01-15T11:14:41;99367.34;;;14.73;43.25
21109;BME280;10712;52.944;9.098;2023-01-15T11:17:37;99378.88;;;14.83;42.88
21109;BME280;10712;52.944;9.098;2023-01-15T11:20:33;99354.13;;;14.72;42.32
21109;BME280;10712;52.944;9.098;2023-01-15T11:23:15;99366.09;;;14.95;42.22
21109;BME280;10712;52.944;9.098;2023-01-15T11:25:54;99378.66;;;14.94;41.95
21109;BME280;10712;52.944;9.098;2023-01-15T11:28:34;99365.25;;;14.94;42.01
21109;BME280;10712;52.944;9.098;2023-01-15T11:31:06;99374.00;;;14.96;41.74
21109;BME280;10712;52.944;9.098;2023-01-15T11:33:33;99370.00;;;15.01;41.49
21109;BME280;10712;52.944;9.098;2023-01-15T11:36:19;99375.97;;;14.94;41.87
21109;BME280;10712;52.944;9.098;2023-01-15T11:38:48;99375.09;;;15.04;41.82
21109;BME280;10712;52.944;9.098;2023-01-15T11:41:30;99376.91;;;14.85;41.37
21109;BME280;10712;52.944;9.098;2023-01-15T11:44:20;99370.09;;;15.09;41.25
21109;BME280;10712;52.944;9.098;2023-01-15T11:47:12;99376.41;;;15.17;41.35
21109;BME280;10712;52.944;9.098;2023-01-15T11:49:56;99367.59;;;15.25;41.01
21109;BME280;10712;52.944;9.098;2023-01-15T11:52:46;99363.59;;;15.29;41.31
21109;BME280;10712;52.944;9.098;2023-01-15T11:55:18;99356.88;;;15.25;41.72
21109;BME280;10712;52.944;9.098;2023-01-15T11:57:48;99356.78;;;15.17;41.55
21109;BME280;10712;52.944;9.098;2023-01-15T12:00:32;99340.78;;;15.25;41.32
21109;BME280;10712;52.944;9.098;2023-01-15T12:03:12;99360.47;;;15.16;41.33
21109;BME280;10712;52.944;9.098;2023-01-15T12:05:55;99362.63;;;15.30;40.53
21109;BME280;10712;52.944;9.098;2023-01-15T12:11:02;99360.06;;;15.28;40.77
21109;BME280;10712;52.944;9.098;2023-01-15T12:13:44;99369.59;;;15.23;40.43
21109;BME280;10712;52.944;9.098;2023-01-15T12:19:00;99377.81;;;15.39;40.08
21109;BME280;10712;52.944;9.098;2023-01-15T12:24:40;99345.47;;;15.41;40.70
21109;BME280;10712;52.944;9.098;2023-01-15T12:30:23;99339.22;;;15.22;40.25
21109;BME280;10712;52.944;9.098;2023-01-15T12:36:40;99342.84;;;15.31;40.65
21109;BME280;10712;52.944;9.098;2023-01-15T12:42:10;99330.81;;;15.35;40.93
21109;BME280;10712;52.944;9.098;2023-01-15T12:45:02;99317.00;;;15.30;40.53
21109;BME280;10712;52.944;9.098;2023-01-15T12:47:47;99330.44;;;15.48;40.62
21109;BME280;10712;52.944;9.098;2023-01-15T12:53:17;99337.47;;;15.49;40.15
21109;BME280;10712;52.944;9.098;2023-01-15T12:56:21;99331.56;;;15.45;40.49
21109;BME280;10712;52.944;9.098;2023-01-15T12:59:28;99348.91;;;15.33;40.86
21109;BME280;10712;52.944;9.098;2023-01-15T13:05:19;99344.91;;;15.37;41.64
21109;BME280;10712;52.944;9.098;2023-01-15T13:08:14;99356.16;;;15.23;42.13
21109;BME280;10712;52.944;9.098;2023-01-15T13:10:44;99353.19;;;15.26;41.66
21109;BME280;10712;52.944;9.098;2023-01-15T13:13:22;99369.44;;;15.42;42.05
21109;BME280;10712;52.944;9.098;2023-01-15T13:16:21;99353.72;;;15.29;42.15
21109;BME280;10712;52.944;9.098;2023-01-15T13:21:42;99351.41;;;15.17;41.60
21109;BME280;10712;52.944;9.098;2023-01-15T13:24:31;99350.03;;;15.30;41.32
21109;BME280;10712;52.944;9.098;2023-01-15T13:27:28;99332.19;;;15.39;41.04
21109;BME280;10712;52.944;9.098;2023-01-15T13:32:57;99346.94;;;15.35;41.47
21109;BME280;10712;52.944;9.098;2023-01-15T13:35:35;99339.53;;;15.37;41.18
21109;BME280;10712;52.944;9.098;2023-01-15T13:38:23;99343.22;;;15.36;41.36
21109;BME280;10712;52.944;9.098;2023-01-15T13:40:54;99343.84;;;15.30;41.44
21109;BME280;10712;52.944;9.098;2023-01-15T13:43:34;99329.03;;;15.44;41.23
21109;BME280;10712;52.944;9.098;2023-01-15T13:46:07;99339.31;;;15.30;40.94
21109;BME280;10712;52.944;9.098;2023-01-15T13:48:48;99342.25;;;15.55;40.91
21109;BME280;10712;52.944;9.098;2023-01-15T13:51:32;99334.25;;;15.45;41.01
21109;BME280;10712;52.944;9.098;2023-01-15T13:54:03;99321.44;;;15.39;41.37
21109;BME280;10712;52.944;9.098;2023-01-15T13:56:35;99333.78;;;15.50;41.00
21109;BME280;10712;52.944;9.098;2023-01-15T13:59:04;99337.63;;;15.47;40.87
21109;BME280;10712;52.944;9.098;2023-01-15T14:01:34;99334.34;;;15.53;40.68
21109;BME280;10712;52.944;9.098;2023-01-15T14:04:13;99340.25;;;15.57;40.73
21109;BME280;10712;52.944;9.098;2023-01-15T14:06:50;99342.78;;;15.58;40.47
21109;BME280;10712;52.944;9.098;2023-01-15T14:14:50;99336.03;;;15.54;40.95
21109;BME280;10712;52.944;9.098;2023-01-15T14:17:57;99347.91;;;15.34;41.56
21109;BME280;10712;52.944;9.098;2023-01-15T14:21:29;99352.72;;;15.30;41.74
21109;BME280;10712;52.944;9.098;2023-01-15T14:26:46;99349.81;;;15.24;42.15
21109;BME280;10712;52.944;9.098;2023-01-15T14:29:57;99354.19;;;15.25;42.13
21109;BME280;10712;52.944;9.098;2023-01-15T14:32:57;99361.84;;;15.20;42.17
21109;BME280;10712;52.944;9.098;2023-01-15T14:35:36;99342.75;;;15.23;41.99
21109;BME280;10712;52.944;9.098;2023-01-15T14:38:12;99349.19;;;15.30;41.72
21109;BME280;10712;52.944;9.098;2023-01-15T14:40:56;99365.72;;;15.35;41.47
21109;BME280;10712;52.944;9.098;2023-01-15T14:43:34;99382.00;;;15.24;41.39
21109;BME280;10712;52.944;9.098;2023-01-15T14:46:30;99357.09;;;15.31;41.19
21109;BME280;10712;52.944;9.098;2023-01-15T14:49:00;99381.84;;;15.43;41.30
21109;BME280;10712;52.944;9.098;2023-01-15T14:51:32;99359.94;;;15.30;41.28
21109;BME280;10712;52.944;9.098;2023-01-15T14:54:07;99359.31;;;15.36;41.34
21109;BME280;10712;52.944;9.098;2023-01-15T14:56:44;99342.59;;;15.42;41.31
21109;BME280;10712;52.944;9.098;2023-01-15T14:59:28;99372.44;;;15.39;41.53
21109;BME280;10712;52.944;9.098;2023-01-15T15:02:01;99380.41;;;15.31;41.88